createdAt,value
2022-11-01T00:01:19.292Z,5.04
2022-11-01T00:04:06.088Z,5.02
2022-11-01T00:06:52.789Z,4.94
2022-11-01T00:09:39.611Z,4.84
2022-11-01T00:12:26.461Z,4.97
2022-11-01T00:15:13.229Z,4.95
2022-11-01T00:17:59.936Z,4.95
2022-11-01T00:20:46.654Z,4.94
2022-11-01T00:23:33.466Z,4.93
2022-11-01T00:26:21.239Z,4.94
2022-11-01T00:29:08.972Z,4.94
2022-11-01T00:31:55.719Z,4.94
2022-11-01T00:34:42.454Z,4.93
2022-11-01T00:37:29.202Z,4.92
2022-11-01T00:40:15.954Z,4.93
2022-11-01T00:43:02.658Z,4.92
2022-11-01T00:45:49.361Z,4.92
2022-11-01T00:48:36.217Z,4.93
2022-11-01T00:51:23.096Z,4.89
2022-11-01T00:54:10.158Z,4.93
2022-11-01T00:56:56.977Z,4.93
2022-11-01T00:59:43.734Z,4.93
2022-11-01T01:02:30.689Z,4.93
2022-11-01T01:05:17.495Z,4.85
2022-11-01T01:08:04.336Z,4.94
2022-11-01T01:10:51.077Z,4.96
2022-11-01T01:13:37.875Z,4.97
2022-11-01T01:16:29.902Z,4.94
2022-11-01T01:19:18.429Z,5.01
2022-11-01T01:22:05.146Z,4.98
2022-11-01T01:24:52.210Z,5.05
2022-11-01T01:27:38.962Z,5.05
2022-11-01T01:30:29.656Z,5.09
2022-11-01T01:33:16.343Z,5.10
2022-11-01T01:36:03.055Z,5.14
2022-11-01T01:38:50.270Z,5.15
2022-11-01T01:41:35.335Z,5.16
2022-11-01T01:44:22.043Z,5.12
2022-11-01T01:47:08.845Z,5.17
2022-11-01T01:49:55.836Z,5.16
2022-11-01T01:52:43.194Z,5.16
2022-11-01T01:55:33.359Z,4.82
2022-11-01T01:58:20.146Z,5.14
2022-11-01T02:01:06.958Z,5.12
2022-11-01T02:03:55.786Z,5.13
2022-11-01T02:06:44.569Z,4.98
2022-11-01T02:09:31.902Z,5.08
2022-11-01T02:12:18.676Z,5.06
2022-11-01T02:15:06.147Z,5.04
2022-11-01T02:17:58.364Z,5.03
2022-11-01T02:21:43.007Z,4.97
2022-11-01T02:24:50.237Z,4.95
2022-11-01T02:27:36.878Z,4.92
2022-11-01T02:30:37.194Z,4.86
2022-11-01T02:33:50.106Z,4.86
2022-11-01T02:36:46.139Z,4.62
2022-11-01T02:39:43.322Z,4.81
2022-11-01T02:42:35.464Z,4.77
2022-11-01T02:45:48.997Z,4.66
2022-11-01T02:48:38.676Z,4.70
2022-11-01T02:51:25.839Z,4.74
2022-11-01T02:54:12.579Z,4.73
2022-11-01T02:57:00.247Z,4.71
2022-11-01T02:59:48.385Z,4.71
2022-11-01T03:02:47.775Z,4.71
2022-11-01T03:05:41.605Z,4.68
2022-11-01T03:08:32.649Z,4.70
2022-11-01T03:11:40.805Z,4.71
2022-11-01T03:15:02.093Z,4.70
2022-11-01T03:18:02.154Z,4.70
2022-11-01T03:21:07.849Z,4.72
2022-11-01T03:24:03.473Z,4.72
2022-11-01T03:26:53.723Z,4.74
2022-11-01T03:29:43.605Z,4.65
2022-11-01T03:32:31.109Z,4.70
2022-11-01T03:35:21.266Z,4.73
2022-11-01T03:38:11.651Z,4.72
2022-11-01T03:41:04.596Z,4.71
2022-11-01T03:43:55.531Z,4.70
2022-11-01T03:46:42.549Z,4.71
2022-11-01T03:49:29.298Z,4.69
2022-11-01T03:52:16.029Z,4.68
2022-11-01T06:34:09.615Z,3.56
2022-11-01T06:36:36.408Z,3.56
2022-11-01T06:39:03.273Z,3.55
2022-11-01T06:41:49.992Z,3.56
2022-11-01T06:44:36.694Z,3.53
2022-11-01T06:47:23.670Z,3.45
2022-11-01T06:50:10.507Z,3.56
2022-11-01T06:52:57.281Z,3.55
2022-11-01T06:55:44.949Z,3.54
2022-11-01T06:58:31.693Z,3.53
2022-11-01T07:01:21.680Z,3.54
2022-11-01T07:07:05.047Z,3.51
2022-11-01T07:09:51.741Z,3.51
2022-11-01T07:12:38.807Z,3.50
2022-11-01T07:15:25.854Z,3.47
2022-11-01T07:18:19.810Z,3.46
2022-11-01T07:21:06.508Z,3.47
2022-11-01T07:23:53.271Z,3.46
2022-11-01T07:26:40.640Z,3.44
2022-11-01T07:29:27.372Z,3.41
2022-11-01T07:32:14.074Z,3.43
2022-11-01T07:35:00.780Z,3.43
2022-11-01T07:37:50.519Z,3.42
2022-11-01T07:40:37.964Z,3.43
2022-11-01T07:43:26.413Z,3.42
2022-11-01T07:46:13.128Z,3.43
2022-11-01T07:48:59.840Z,3.41
2022-11-01T07:51:46.641Z,3.42
2022-11-01T07:54:33.432Z,3.42
2022-11-01T07:57:20.134Z,3.43
2022-11-01T08:00:06.847Z,3.43
2022-11-01T08:02:59.337Z,3.43
2022-11-01T08:05:46.154Z,3.45
2022-11-01T08:17:03.501Z,3.49
2022-11-01T08:19:50.426Z,3.39
2022-11-01T08:22:37.405Z,3.51
2022-11-01T08:25:24.538Z,3.53
2022-11-01T08:28:11.864Z,3.55
2022-11-01T08:31:00.722Z,3.58
2022-11-01T08:33:47.745Z,3.58
2022-11-01T08:36:34.613Z,3.42
2022-11-01T08:39:21.927Z,3.62
2022-11-01T08:42:09.587Z,3.67
2022-11-01T08:44:56.434Z,3.70
2022-11-01T08:47:43.394Z,3.75
2022-11-01T08:50:34.849Z,3.46
2022-11-01T08:53:32.795Z,3.21
2022-11-01T08:56:19.978Z,3.60
2022-11-01T08:59:09.282Z,3.62
2022-11-01T09:01:56.380Z,3.98
2022-11-01T09:04:43.346Z,4.01
2022-11-01T09:07:30.187Z,4.10
2022-11-01T09:10:16.991Z,4.15
2022-11-01T09:13:04.413Z,3.96
2022-11-01T09:15:51.750Z,4.26
2022-11-01T09:18:39.035Z,4.26
2022-11-01T09:21:30.577Z,4.35
2022-11-01T09:24:18.869Z,4.41
2022-11-01T09:27:05.727Z,4.14
2022-11-01T09:29:52.723Z,4.51
2022-11-01T09:32:39.726Z,4.55
2022-11-01T09:35:27.145Z,4.60
2022-11-01T09:38:21.393Z,4.66
2022-11-01T09:41:22.016Z,4.72
2022-11-01T09:44:10.563Z,4.80
2022-11-01T09:47:05.845Z,4.86
2022-11-01T09:49:56.832Z,4.93
2022-11-01T09:52:45.346Z,4.99
2022-11-01T09:55:37.191Z,5.04
2022-11-01T09:58:36.694Z,5.08
2022-11-01T10:01:57.681Z,5.15
2022-11-01T10:04:47.833Z,5.19
2022-11-01T10:07:34.719Z,5.17
2022-11-01T10:10:46.533Z,5.33
2022-11-01T10:13:36.391Z,5.42
2022-11-01T10:16:25.738Z,5.48
2022-11-01T10:19:20.707Z,5.52
2022-11-01T10:22:08.538Z,5.59
2022-11-01T10:25:01.322Z,5.65
2022-11-01T10:28:05.798Z,5.75
2022-11-01T10:31:05.022Z,5.81
2022-11-01T10:33:58.415Z,5.85
2022-11-01T10:36:58.213Z,5.89
2022-11-01T10:40:09.102Z,5.94
2022-11-01T10:42:56.979Z,5.99
2022-11-01T10:45:47.627Z,6.04
2022-11-01T10:48:52.370Z,6.12
2022-11-01T10:51:44.175Z,6.18
2022-11-01T10:54:40.078Z,6.27
2022-11-01T10:57:45.080Z,6.33
2022-11-01T11:00:37.677Z,6.42
2022-11-01T11:03:37.647Z,6.52
2022-11-01T11:06:29.010Z,6.64
2022-11-01T11:09:16.717Z,6.72
2022-11-01T11:12:04.676Z,6.79
2022-11-01T11:14:53.661Z,6.89
2022-11-01T11:17:44.993Z,6.98
2022-11-01T11:20:32.616Z,7.04
2022-11-01T11:23:22.044Z,7.07
2022-11-01T11:26:10.134Z,7.10
2022-11-01T11:29:02.318Z,7.12
2022-11-01T11:31:52.557Z,7.16
2022-11-01T11:34:48.224Z,7.23
2022-11-01T11:37:41.695Z,6.99
2022-11-01T11:40:44.024Z,7.35
2022-11-01T11:43:49.795Z,7.38
2022-11-01T11:46:41.474Z,7.44
2022-11-01T11:49:46.318Z,7.46
2022-11-01T11:52:43.288Z,7.48
2022-11-01T11:55:48.918Z,7.53
2022-11-01T11:58:48.587Z,7.53
2022-11-01T12:01:41.638Z,7.29
2022-11-01T12:04:37.986Z,7.59
2022-11-01T12:07:26.162Z,7.64
2022-11-01T12:10:13.983Z,7.69
2022-11-01T12:13:01.028Z,7.74
2022-11-01T12:15:53.414Z,7.80
2022-11-01T12:18:40.259Z,7.87
2022-11-01T12:21:39.265Z,7.93
2022-11-01T12:24:40.175Z,8.00
2022-11-01T12:27:33.778Z,7.97
2022-11-01T12:30:27.437Z,8.13
2022-11-01T12:33:19.299Z,8.16
2022-11-01T12:36:07.788Z,8.19
2022-11-01T12:38:57.504Z,8.25
2022-11-01T12:41:47.350Z,8.26
2022-11-01T12:44:52.650Z,8.28
2022-11-01T12:47:51.498Z,8.32
2022-11-01T12:50:53.312Z,8.33
2022-11-01T12:53:45.684Z,8.33
2022-11-01T12:56:32.526Z,8.36
2022-11-01T12:59:19.819Z,8.35
2022-11-01T13:02:16.499Z,8.38
2022-11-01T13:05:12.239Z,8.40
2022-11-01T13:08:09.442Z,8.39
2022-11-01T13:11:00.150Z,8.39
2022-11-01T13:13:54.594Z,8.38
2022-11-01T13:16:50.370Z,8.39
2022-11-01T13:19:47.807Z,8.27
2022-11-01T13:22:44.925Z,8.35
2022-11-01T13:25:47.366Z,8.37
2022-11-01T13:28:43.942Z,8.45
2022-11-01T13:32:00.335Z,8.46
2022-11-01T13:35:11.410Z,8.46
2022-11-01T13:38:05.690Z,8.46
2022-11-01T13:41:20.192Z,8.44
2022-11-01T13:44:14.442Z,8.43
2022-11-01T13:47:08.622Z,8.43
2022-11-01T13:50:01.857Z,8.43
2022-11-01T13:52:51.441Z,8.42
2022-11-01T13:55:49.635Z,8.40
2022-11-01T13:58:40.870Z,8.39
2022-11-01T14:01:49.573Z,8.37
2022-11-01T14:04:36.967Z,8.36
2022-11-01T14:07:29.568Z,8.33
2022-11-01T14:10:16.527Z,8.32
2022-11-01T14:13:05.092Z,8.22
2022-11-01T14:15:52.425Z,8.26
2022-11-01T14:18:39.409Z,8.24
2022-11-01T14:21:48.046Z,8.19
2022-11-01T14:24:53.186Z,8.18
2022-11-01T14:28:01.488Z,8.14
2022-11-01T14:30:53.255Z,8.12
2022-11-01T14:33:41.412Z,8.10
2022-11-01T14:36:31.038Z,8.07
2022-11-01T14:39:27.861Z,8.04
2022-11-01T14:42:18.498Z,8.00
2022-11-01T14:45:07.851Z,7.51
2022-11-01T14:47:59.133Z,7.92
2022-11-01T14:50:50.911Z,7.89
2022-11-01T14:53:41.406Z,7.83
2022-11-01T14:56:39.800Z,7.80
2022-11-01T14:59:38.773Z,7.74
2022-11-01T15:02:27.081Z,7.71
2022-11-01T15:05:21.408Z,7.65
2022-11-01T15:08:17.021Z,7.60
2022-11-01T15:11:04.941Z,7.56
2022-11-01T15:13:55.398Z,7.52
2022-11-01T15:16:44.415Z,7.49
2022-11-01T15:19:42.346Z,7.42
2022-11-01T15:22:36.731Z,7.34
2022-11-01T15:25:25.557Z,7.30
2022-11-01T15:28:14.142Z,7.26
2022-11-01T15:31:01.175Z,7.16
2022-11-01T15:33:52.324Z,7.16
2022-11-01T15:36:47.796Z,6.99
2022-11-01T15:39:43.827Z,7.02
2022-11-01T15:42:41.907Z,6.94
2022-11-01T15:45:40.532Z,6.77
2022-11-01T15:48:39.337Z,6.82
2022-11-01T15:51:28.482Z,6.74
2022-11-01T15:54:36.678Z,6.73
2022-11-01T15:57:30.366Z,6.68
2022-11-01T16:00:38.991Z,6.63
2022-11-01T16:03:35.337Z,6.58
2022-11-01T16:06:26.557Z,6.54
2022-11-01T16:09:18.171Z,6.41
2022-11-01T16:12:08.001Z,6.44
2022-11-01T16:14:57.009Z,6.35
2022-11-01T16:17:57.504Z,6.34
2022-11-01T16:21:03.451Z,5.98
2022-11-01T16:23:50.773Z,6.24
2022-11-01T16:26:37.680Z,6.02
2022-11-01T16:29:24.499Z,6.12
2022-11-01T16:32:25.110Z,6.01
2022-11-01T16:35:11.918Z,5.70
2022-11-01T16:38:03.393Z,5.96
2022-11-01T16:40:50.450Z,5.87
2022-11-01T16:43:37.284Z,5.88
2022-11-01T16:46:24.397Z,5.81
2022-11-01T16:49:13.375Z,4.92
2022-11-01T16:52:01.476Z,5.74
2022-11-01T16:54:48.336Z,5.71
2022-11-01T16:57:45.521Z,5.65
2022-11-01T17:00:34.225Z,5.60
2022-11-01T17:03:21.066Z,5.50
2022-11-01T17:06:09.586Z,5.50
2022-11-01T17:08:56.990Z,5.46
2022-11-01T17:11:49.507Z,5.36
2022-11-01T17:14:38.638Z,5.38
2022-11-01T17:17:32.435Z,5.30
2022-11-01T17:20:21.965Z,5.29
2022-11-01T17:23:10.718Z,5.04
2022-11-01T17:25:57.591Z,5.21
2022-11-01T17:28:49.518Z,5.17
2022-11-01T17:31:38.992Z,5.13
2022-11-01T17:34:25.951Z,4.95
2022-11-01T17:37:12.910Z,5.05
2022-11-01T17:39:59.998Z,4.94
2022-11-01T17:42:47.101Z,4.96
2022-11-01T17:45:34.264Z,4.82
2022-11-01T17:48:21.217Z,4.86
2022-11-01T17:51:08.124Z,4.82
2022-11-01T17:53:55.286Z,4.67
2022-11-01T17:56:43.709Z,4.74
2022-11-01T17:59:30.787Z,4.69
2022-11-01T18:02:17.725Z,4.44
2022-11-01T18:05:05.293Z,3.68
2022-11-01T18:08:01.333Z,4.58
2022-11-01T18:11:02.058Z,4.54
2022-11-01T18:14:06.697Z,4.50
2022-11-01T18:17:53.912Z,4.46
2022-11-01T18:21:20.207Z,4.39
2022-11-01T18:24:13.461Z,4.36
2022-11-01T18:27:04.375Z,4.32
2022-11-01T18:29:51.331Z,3.79
2022-11-01T18:32:54.785Z,4.23
2022-11-01T18:36:04.713Z,4.21
2022-11-01T18:39:01.759Z,4.18
2022-11-01T18:41:48.840Z,4.13
2022-11-01T18:44:35.754Z,3.98
2022-11-01T18:47:32.510Z,4.06
2022-11-01T18:50:21.433Z,3.99
2022-11-01T18:53:08.476Z,3.99
2022-11-01T18:55:55.420Z,3.96
2022-11-01T18:58:45.963Z,3.92
2022-11-01T19:01:41.146Z,3.89
2022-11-01T19:04:39.510Z,3.86
2022-11-01T19:07:44.508Z,3.78
2022-11-01T19:10:41.760Z,3.77
2022-11-01T19:13:45.246Z,3.75
2022-11-01T19:16:32.233Z,3.71
2022-11-01T19:19:19.856Z,3.67
2022-11-01T19:22:07.577Z,3.63
2022-11-01T19:24:58.669Z,3.61
2022-11-01T19:27:45.946Z,3.53
2022-11-01T19:30:41.992Z,3.52
2022-11-01T19:33:35.358Z,3.50
2022-11-01T19:36:25.809Z,3.47
2022-11-01T19:39:12.994Z,3.44
2022-11-01T19:41:59.937Z,3.11
2022-11-01T19:44:48.253Z,3.34
2022-11-01T19:47:54.009Z,3.34
2022-11-01T19:50:47.622Z,3.31
2022-11-01T19:53:40.722Z,3.28
2022-11-01T19:56:32.998Z,3.25
2022-11-01T19:59:21.124Z,3.24
2022-11-01T20:02:10.296Z,2.81
2022-11-01T20:04:57.513Z,3.19
2022-11-01T20:07:44.362Z,3.15
2022-11-01T20:10:31.805Z,3.14
2022-11-01T20:13:18.666Z,3.12
2022-11-01T20:16:05.607Z,2.98
2022-11-01T20:18:52.450Z,3.10
2022-11-01T20:21:39.264Z,3.07
2022-11-01T20:24:26.631Z,3.07
2022-11-01T20:27:14.644Z,3.07
2022-11-01T20:30:01.507Z,3.03
2022-11-01T20:32:48.567Z,2.95
2022-11-01T20:35:35.449Z,3.05
2022-11-01T20:38:22.305Z,3.01
2022-11-01T20:41:09.362Z,3.05
2022-11-01T20:43:56.213Z,2.99
2022-11-01T20:46:43.122Z,3.03
2022-11-01T20:49:30.689Z,3.04
2022-11-01T20:52:38.518Z,3.04
2022-11-01T20:55:24.972Z,3.04
2022-11-01T20:58:13.709Z,3.04
2022-11-01T21:01:00.604Z,3.05
2022-11-01T21:03:47.934Z,3.06
2022-11-01T21:06:38.618Z,3.05
2022-11-01T21:09:52.038Z,2.46
2022-11-01T21:12:56.523Z,3.06
2022-11-01T21:15:46.153Z,3.07
2022-11-01T21:18:33.006Z,3.07
2022-11-01T21:21:47.086Z,3.08
2022-11-01T21:24:48.790Z,3.09
2022-11-01T21:27:47.886Z,3.09
2022-11-01T21:30:41.221Z,3.06
2022-11-01T21:33:58.276Z,3.10
2022-11-01T21:36:54.610Z,3.12
2022-11-01T21:39:49.479Z,3.12
2022-11-01T21:42:52.571Z,2.99
2022-11-01T21:45:47.246Z,3.15
2022-11-01T21:48:41.586Z,3.15
2022-11-01T21:51:28.687Z,3.18
2022-11-01T21:54:15.824Z,3.18
2022-11-01T21:57:02.723Z,3.13
2022-11-01T21:59:50.158Z,3.21
2022-11-01T22:02:37.023Z,3.23
2022-11-01T22:05:25.082Z,3.24
2022-11-01T22:08:12.222Z,3.25
2022-11-01T22:10:59.068Z,3.25
2022-11-01T22:13:45.833Z,3.26
2022-11-01T22:16:32.672Z,3.28
2022-11-01T22:19:19.552Z,3.29
2022-11-01T22:22:09.639Z,3.31
2022-11-01T22:24:56.508Z,2.74
2022-11-01T22:27:43.362Z,3.34
2022-11-01T22:30:30.795Z,3.36
2022-11-01T22:33:19.562Z,3.38
2022-11-01T22:36:06.346Z,3.21
2022-11-01T22:39:01.776Z,3.40
2022-11-01T22:41:54.106Z,2.92
2022-11-01T22:44:51.186Z,3.43
2022-11-01T22:47:48.668Z,3.46
2022-11-01T22:50:44.894Z,3.47
2022-11-01T22:53:36.401Z,3.48
2022-11-01T22:56:23.574Z,3.48
2022-11-01T22:59:11.465Z,3.53
2022-11-01T23:01:58.526Z,3.54
2022-11-01T23:04:45.362Z,3.57
2022-11-01T23:07:48.386Z,3.58
2022-11-01T23:10:47.570Z,3.59
2022-11-01T23:13:47.234Z,3.59
2022-11-01T23:16:39.849Z,3.61
2022-11-01T23:19:31.284Z,3.64
2022-11-01T23:22:18.226Z,3.65
2022-11-01T23:25:05.238Z,3.67
2022-11-01T23:27:52.170Z,3.68
2022-11-01T23:30:39.206Z,3.71
2022-11-01T23:33:33.150Z,3.73
2022-11-01T23:36:20.463Z,3.73
2022-11-01T23:39:17.326Z,3.76
2022-11-01T23:42:10.597Z,3.78
2022-11-01T23:45:00.150Z,3.80
2022-11-01T23:47:57.632Z,3.82
2022-11-01T23:50:57.039Z,3.85
2022-11-01T23:53:52.823Z,3.87
2022-11-01T23:56:41.421Z,3.90
2022-11-01T23:59:28.534Z,3.93
